Map

Track Data

SID SEASON NUMBER BASIN SUBBASIN NAME ISO_TIME NATURE LAT LON WMO_WIND WMO_PRES WMO_AGENCY TRACK_TYPE DIST2LAND LANDFALL IFLAG USA_AGENCY USA_ATCF_ID USA_LAT USA_LON USA_RECORD USA_STATUS USA_WIND USA_PRES USA_SSHS USA_R34_NE USA_R34_SE USA_R34_SW USA_R34_NW USA_R50_NE USA_R50_SE USA_R50_SW USA_R50_NW USA_R64_NE USA_R64_SE USA_R64_SW USA_R64_NW USA_POCI USA_ROCI USA_RMW USA_EYE TOKYO_LAT TOKYO_LON TOKYO_GRADE TOKYO_WIND TOKYO_PRES TOKYO_R50_DIR TOKYO_R50_LONG TOKYO_R50_SHORT TOKYO_R30_DIR TOKYO_R30_LONG TOKYO_R30_SHORT TOKYO_LAND CMA_LAT CMA_LON CMA_CAT CMA_WIND CMA_PRES HKO_LAT HKO_LON HKO_CAT HKO_WIND HKO_PRES NEWDELHI_LAT NEWDELHI_LON NEWDELHI_GRADE NEWDELHI_WIND NEWDELHI_PRES NEWDELHI_CI NEWDELHI_DP NEWDELHI_POCI REUNION_LAT REUNION_LON REUNION_TYPE REUNION_WIND REUNION_PRES REUNION_TNUM REUNION_CI REUNION_RMW REUNION_R34_NE REUNION_R34_SE REUNION_R34_SW REUNION_R34_NW REUNION_R50_NE REUNION_R50_SE REUNION_R50_SW REUNION_R50_NW REUNION_R64_NE REUNION_R64_SE REUNION_R64_SW REUNION_R64_NW BOM_LAT BOM_LON BOM_TYPE BOM_WIND BOM_PRES BOM_TNUM BOM_CI BOM_RMW BOM_R34_NE BOM_R34_SE BOM_R34_SW BOM_R34_NW BOM_R50_NE BOM_R50_SE BOM_R50_SW BOM_R50_NW BOM_R64_NE BOM_R64_SE BOM_R64_SW BOM_R64_NW BOM_ROCI BOM_POCI BOM_EYE BOM_POS_METHOD BOM_PRES_METHOD NADI_LAT NADI_LON NADI_CAT NADI_WIND NADI_PRES WELLINGTON_LAT WELLINGTON_LON WELLINGTON_WIND WELLINGTON_PRES DS824_LAT DS824_LON DS824_STAGE DS824_WIND DS824_PRES TD9636_LAT TD9636_LON TD9636_STAGE TD9636_WIND TD9636_PRES TD9635_LAT TD9635_LON TD9635_WIND TD9635_PRES TD9635_ROCI NEUMANN_LAT NEUMANN_LON NEUMANN_CLASS NEUMANN_WIND NEUMANN_PRES MLC_LAT MLC_LON MLC_CLASS MLC_WIND MLC_PRES USA_GUST BOM_GUST BOM_GUST_PER REUNION_GUST REUNION_GUST_PER USA_SEAHGT USA_SEARAD_NE USA_SEARAD_SE USA_SEARAD_SW USA_SEARAD_NW STORM_SPEED STORM_DIR
1899001S11067 1899 2 SI MM NOT_NAMED 1899-01-01 06:00:00 NR -10.7000 66.6000 main 1419 1404 __________O___ -1 -10.7000 66.6000 7 4 218
1899001S11067 1899 2 SI MM NOT_NAMED 1899-01-01 09:00:00 NR -10.8563 66.4767 main 1395 1379 __________P___ -1 -10.8563 66.4767 7 4 218
1899001S11067 1899 2 SI MM NOT_NAMED 1899-01-01 12:00:00 NR -11.0100 66.3526 main 1379 1348 __________P___ -1 -11.0100 66.3526 7 4 219
1899001S11067 1899 2 SI MM NOT_NAMED 1899-01-01 15:00:00 NR -11.1588 66.2272 main 1348 1333 __________P___ -1 -11.1588 66.2272 7 4 221
1899001S11067 1899 2 SI MM NOT_NAMED 1899-01-01 18:00:00 NR -11.3000 66.1000 main 1333 1317 __________O___ -1 -11.3000 66.1000 7 4 223
1899001S11067 1899 2 SI MM NOT_NAMED 1899-01-01 21:00:00 NR -11.4322 65.9709 main 1317 1286 __________P___ -1 -11.4322 65.9709 7 4 224
1899001S11067 1899 2 SI MM NOT_NAMED 1899-01-02 00:00:00 NR -11.5575 65.8425 main 1286 1270 __________P___ -1 -11.5575 65.8425 7 4 225
1899001S11067 1899 2 SI MM NOT_NAMED 1899-01-02 03:00:00 NR -11.6791 65.7178 main 1270 1255 __________P___ -1 -11.6791 65.7178 7 3 225
1899001S11067 1899 2 SI MM NOT_NAMED 1899-01-02 06:00:00 NR -11.8000 65.6000 main 1255 1239 __________O___ -1 -11.8000 65.6000 7 3 222
1899001S11067 1899 2 SI MM NOT_NAMED 1899-01-02 09:00:00 NR -11.9209 65.4928 main 1239 1223 __________P___ -1 -11.9209 65.4928 7 3 220
1899001S11067 1899 2 SI MM NOT_NAMED 1899-01-02 12:00:00 NR -12.0425 65.3924 main 1223 1199 __________P___ -1 -12.0425 65.3924 7 3 218
1899001S11067 1899 2 SI MM NOT_NAMED 1899-01-02 15:00:00 NR -12.1678 65.2959 main 1199 1184 __________P___ -1 -12.1678 65.2959 7 3 216
1899001S11067 1899 2 SI MM NOT_NAMED 1899-01-02 18:00:00 NR -12.3000 65.2000 main 1184 1168 __________O___ -1 -12.3000 65.2000 7 3 214
1899001S11067 1899 2 SI MM NOT_NAMED 1899-01-02 21:00:00 NR -12.4428 65.1081 main 1168 1144 __________P___ -1 -12.4428 65.1081 7 3 212
1899001S11067 1899 2 SI MM NOT_NAMED 1899-01-03 00:00:00 NR -12.5924 65.0149 main 1144 1129 __________P___ -1 -12.5924 65.0149 7 4 212
1899001S11067 1899 2 SI MM NOT_NAMED 1899-01-03 03:00:00 NR -12.7459 64.9143 main 1129 1105 __________P___ -1 -12.7459 64.9143 7 4 214
1899001S11067 1899 2 SI MM NOT_NAMED 1899-01-03 06:00:00 NR -12.9000 64.8000 main 1105 1089 __________O___ -1 -12.9000 64.8000 7 4 219
1899001S11067 1899 2 SI MM NOT_NAMED 1899-01-03 09:00:00 NR -13.0541 64.6563 main 1081 1058 __________P___ -1 -13.0541 64.6563 7 4 224
1899001S11067 1899 2 SI MM NOT_NAMED 1899-01-03 12:00:00 NR -13.2076 64.5001 main 1058 1042 __________P___ -1 -13.2076 64.5001 7 4 225
1899001S11067 1899 2 SI MM NOT_NAMED 1899-01-03 15:00:00 NR -13.3572 64.3438 main 1027 1011 __________P___ -1 -13.3572 64.3438 7 4 225
1899001S11067 1899 2 SI MM NOT_NAMED 1899-01-03 18:00:00 NR -13.5000 64.2000 main 1011 996 __________O___ -1 -13.5000 64.2000 7 4 222
1899001S11067 1899 2 SI MM NOT_NAMED 1899-01-03 21:00:00 NR -13.6240 64.0976 main 996 980 __________P___ -1 -13.6240 64.0976 7 3 218
1899001S11067 1899 2 SI MM NOT_NAMED 1899-01-04 00:00:00 NR -13.7424 64.0072 main 980 956 __________P___ -1 -13.7424 64.0072 7 3 216
1899001S11067 1899 2 SI MM NOT_NAMED 1899-01-04 03:00:00 NR -13.8646 63.9132 main 956 941 __________P___ -1 -13.8646 63.9132 7 3 218
1899001S11067 1899 2 SI MM NOT_NAMED 1899-01-04 06:00:00 NR -14.0000 63.8000 main 941 910 __________O___ -1 -14.0000 63.8000 7 4 222
1899001S11067 1899 2 SI MM NOT_NAMED 1899-01-04 09:00:00 NR -14.1648 63.6385 main 910 894 __________P___ -1 -14.1648 63.6385 7 5 224
1899001S11067 1899 2 SI MM NOT_NAMED 1899-01-04 12:00:00 NR -14.3426 63.4576 main 894 863 __________P___ -1 -14.3426 63.4576 7 5 225
1899001S11067 1899 2 SI MM NOT_NAMED 1899-01-04 15:00:00 NR -14.5241 63.2729 main 863 832 __________P___ -1 -14.5241 63.2729 7 5 224
1899001S11067 1899 2 SI MM NOT_NAMED 1899-01-04 18:00:00 NR -14.7000 63.1000 main 832 817 __________O___ -1 -14.7000 63.1000 7 4 222
1899001S11067 1899 2 SI MM NOT_NAMED 1899-01-04 21:00:00 NR -14.8530 62.9645 main 808 786 __________P___ -1 -14.8530 62.9645 7 4 220
1899001S11067 1899 2 SI MM NOT_NAMED 1899-01-05 00:00:00 NR -14.9999 62.8423 main 786 770 __________P___ -1 -14.9999 62.8423 7 4 218
1899001S11067 1899 2 SI MM NOT_NAMED 1899-01-05 03:00:00 NR -15.1468 62.7239 main 770 746 __________P___ -1 -15.1468 62.7239 7 4 218
1899001S11067 1899 2 SI MM NOT_NAMED 1899-01-05 06:00:00 NR -15.3000 62.6000 main 746 723 __________O___ -1 -15.3000 62.6000 7 4 219
1899001S11067 1899 2 SI MM NOT_NAMED 1899-01-05 09:00:00 NR -15.4760 62.4451 main 715 700 __________P___ -1 -15.4760 62.4451 7 5 220
1899001S11067 1899 2 SI MM NOT_NAMED 1899-01-05 12:00:00 NR -15.6576 62.2851 main 692 669 __________P___ -1 -15.6576 62.2851 7 5 220
1899001S11067 1899 2 SI MM NOT_NAMED 1899-01-05 15:00:00 NR -15.8354 62.1326 main 669 645 __________P___ -1 -15.8354 62.1326 7 4 219
1899001S11067 1899 2 SI MM NOT_NAMED 1899-01-05 18:00:00 NR -16.0000 62.0000 main 645 630 __________O___ -1 -16.0000 62.0000 7 4 215
1899001S11067 1899 2 SI MM NOT_NAMED 1899-01-05 21:00:00 NR -16.1352 61.9154 main 630 614 __________P___ -1 -16.1352 61.9154 7 3 209
1899001S11067 1899 2 SI MM NOT_NAMED 1899-01-06 00:00:00 NR -16.2574 61.8497 main 606 598 __________P___ -1 -16.2574 61.8497 7 3 207
1899001S11067 1899 2 SI MM NOT_NAMED 1899-01-06 03:00:00 NR -16.3758 61.7842 main 598 583 __________P___ -1 -16.3758 61.7842 7 3 211
1899001S11067 1899 2 SI MM NOT_NAMED 1899-01-06 06:00:00 NR -16.5000 61.7000 main 583 568 __________O___ -1 -16.5000 61.7000 7 3 220
1899001S11067 1899 2 SI MM NOT_NAMED 1899-01-06 09:00:00 NR -16.6348 61.5594 main 568 537 __________P___ -1 -16.6348 61.5594 7 4 226
1899001S11067 1899 2 SI MM NOT_NAMED 1899-01-06 12:00:00 NR -16.7776 61.4001 main 537 514 __________P___ -1 -16.7776 61.4001 7 4 226
1899001S11067 1899 2 SI MM NOT_NAMED 1899-01-06 15:00:00 NR -16.9316 61.2407 main 514 490 __________P___ -1 -16.9316 61.2407 7 4 222
1899001S11067 1899 2 SI MM NOT_NAMED 1899-01-06 18:00:00 NR -17.1000 61.1000 main 490 467 __________O___ -1 -17.1000 61.1000 7 4 213
1899001S11067 1899 2 SI MM NOT_NAMED 1899-01-06 21:00:00 NR -17.2937 60.9993 main 467 445 __________P___ -1 -17.2937 60.9993 7 4 203
1899001S11067 1899 2 SI MM NOT_NAMED 1899-01-07 00:00:00 NR -17.4999 60.9199 main 445 430 __________P___ -1 -17.4999 60.9199 7 4 199
1899001S11067 1899 2 SI MM NOT_NAMED 1899-01-07 03:00:00 NR -17.7062 60.8556 main 430 408 __________P___ -1 -17.7062 60.8556 7 4 195
1899001S11067 1899 2 SI MM NOT_NAMED 1899-01-07 06:00:00 NR -17.9000 60.8000 main 408 386 __________O___ -1 -17.9000 60.8000 7 4 197
1899001S11067 1899 2 SI MM NOT_NAMED 1899-01-07 09:00:00 NR -18.0603 60.7346 main 386 380 __________P___ -1 -18.0603 60.7346 7 3 201
1899001S11067 1899 2 SI MM NOT_NAMED 1899-01-07 12:00:00 NR -18.2075 60.6775 main 380 365 __________P___ -1 -18.2075 60.6775 7 3 198
1899001S11067 1899 2 SI MM NOT_NAMED 1899-01-07 15:00:00 NR -18.3509 60.6316 main 358 353 __________P___ -1 -18.3509 60.6316 7 3 194
1899001S11067 1899 2 SI MM NOT_NAMED 1899-01-07 18:00:00 NR -18.5000 60.6000 main 353 347 __________O___ -1 -18.5000 60.6000 7 3 186
1899001S11067 1899 2 SI MM NOT_NAMED 1899-01-07 21:00:00 NR -18.6556 60.5815 main 342 337 __________P___ -1 -18.6556 60.5815 7 3 0
1899001S11067 1899 2 SI MM NOT_NAMED 1899-01-08 00:00:00 NR -18.8200 60.5775 main 337 327 __________P___ -1 -18.8200 60.5775 7 3 0
1899001S11067 1899 2 SI MM NOT_NAMED 1899-01-08 03:00:00 NR -18.9994 60.5847 main 327 317 __________P___ -1 -18.9994 60.5847 7 4 0
1899001S11067 1899 2 SI MM NOT_NAMED 1899-01-08 06:00:00 NR -19.2000 60.6000 main 317 309 __________O___ -1 -19.2000 60.6000 7 4 0
1899001S11067 1899 2 SI MM NOT_NAMED 1899-01-08 09:00:00 NR -19.4366 60.6097 main 309 300 __________P___ -1 -19.4366 60.6097 7 5 179
1899001S11067 1899 2 SI MM NOT_NAMED 1899-01-08 12:00:00 NR -19.6925 60.6276 main 300 295 __________P___ -1 -19.6925 60.6276 7 5 175
1899001S11067 1899 2 SI MM NOT_NAMED 1899-01-08 15:00:00 NR -19.9522 60.6566 main 304 302 __________P___ -1 -19.9522 60.6566 7 5 172
1899001S11067 1899 2 SI MM NOT_NAMED 1899-01-08 18:00:00 NR -20.2000 60.7000 main 302 302 __________O___ -1 -20.2000 60.7000 7 4 176
1899001S11067 1899 2 SI MM NOT_NAMED 1899-01-08 21:00:00 NR -20.3448 60.6933 main 302 302 __________P___ -1 -20.3448 60.6933 7 3 0
1899001S11067 1899 2 SI MM NOT_NAMED 1899-01-09 00:00:00 NR -20.4866 60.7106 main 303 303 __________P___ -1 -20.4866 60.7106 7 4 164
1899001S11067 1899 2 SI MM NOT_NAMED 1899-01-09 03:00:00 NR -20.6851 60.7975 main 315 315 __________P___ -1 -20.6851 60.7975 7 6 152
1899001S11067 1899 2 SI MM NOT_NAMED 1899-01-09 06:00:00 NR -21.0000 61.0000 main 341 341 __________O___ -1 -21.0000 61.0000 7 10 148
1899001S11067 1899 2 SI MM NOT_NAMED 1899-01-09 09:00:00 NR -21.5400 61.3711 main 397 397 __________P___ -1 -21.5400 61.3711 7 14 146
1899001S11067 1899 2 SI MM NOT_NAMED 1899-01-09 12:00:00 NR -22.1910 61.8613 main 474 474 __________P___ -1 -22.1910 61.8613 7 17 144
1899001S11067 1899 2 SI MM NOT_NAMED 1899-01-09 15:00:00 NR -22.8713 62.4213 main 554 554 __________P___ -1 -22.8713 62.4213 7 17 141
1899001S11067 1899 2 SI MM NOT_NAMED 1899-01-09 18:00:00 NR -23.5000 63.0000 main 640 640 __________O___ -1 -23.5000 63.0000 7 16 138
1899001S11067 1899 2 SI MM NOT_NAMED 1899-01-09 21:00:00 NR -24.0157 63.5548 main 722 722 __________P___ -1 -24.0157 63.5548 7 14 133
1899001S11067 1899 2 SI MM NOT_NAMED 1899-01-10 00:00:00 NR -24.4326 64.0836 main 788 788 __________P___ -1 -24.4326 64.0836 7 12 129
1899001S11067 1899 2 SI MM NOT_NAMED 1899-01-10 03:00:00 NR -24.7833 64.5955 main 855 855 __________P___ -1 -24.7833 64.5955 7 11 126
1899001S11067 1899 2 SI MM NOT_NAMED 1899-01-10 06:00:00 NR -25.1000 65.1000 main 915 __________O___ -1 -25.1000 65.1000 7 11 125

About IBTrACS Database

This database is a web-friendly format of International Best Track Archive for Climate Stewardship (IBTrACS), a global best track data archive curated by NOAA dating back to 1842.

Updated: 2021-10-25